createdAt,value
2022-08-07T00:00:28.775Z,25.03
2022-08-07T00:01:44.256Z,25.00
2022-08-07T00:02:41.644Z,24.97
2022-08-07T00:03:47.346Z,24.99
2022-08-07T00:04:50.230Z,24.95
2022-08-07T00:05:57.809Z,24.94
2022-08-07T00:07:05.128Z,24.94
2022-08-07T00:08:09.481Z,24.88
2022-08-07T00:09:17.066Z,24.90
2022-08-07T00:10:31.623Z,24.93
2022-08-07T00:11:48.120Z,24.97
2022-08-07T00:12:57.941Z,25.02
2022-08-07T00:13:50.385Z,24.95
2022-08-07T00:14:54.933Z,24.94
2022-08-07T00:15:59.877Z,24.92
2022-08-07T00:17:07.304Z,24.92
2022-08-07T00:18:19.349Z,24.94
2022-08-07T00:19:26.080Z,24.92
2022-08-07T00:20:29.829Z,24.90
2022-08-07T00:21:56.944Z,24.90
2022-08-07T00:22:39.034Z,24.86
2022-08-07T00:23:44.591Z,24.85
2022-08-07T00:24:49.953Z,24.82
2022-08-07T00:25:59.285Z,24.81
2022-08-07T00:27:07.438Z,24.72
2022-08-07T00:53:58.065Z,24.38
2022-08-07T00:55:04.733Z,24.38
2022-08-07T00:56:14.112Z,24.45
2022-08-07T00:57:18.961Z,24.45
2022-08-07T00:58:24.706Z,24.47
2022-08-07T00:59:32.452Z,24.41
2022-08-07T01:00:36.090Z,24.43
2022-08-07T01:01:44.248Z,24.51
2022-08-07T01:02:46.442Z,24.51
2022-08-07T01:04:00.392Z,24.50
2022-08-07T01:05:03.070Z,24.50
2022-08-07T01:06:13.513Z,24.49
2022-08-07T01:07:23.656Z,24.50
2022-08-07T01:08:31.444Z,24.50
2022-08-07T01:10:04.403Z,24.49
2022-08-07T01:10:47.601Z,24.48
2022-08-07T01:12:09.831Z,24.39
2022-08-07T01:13:00.811Z,24.41
2022-08-07T01:14:06.560Z,24.44
2022-08-07T01:15:17.779Z,24.37
2022-08-07T01:16:30.342Z,24.35
2022-08-07T01:17:25.907Z,24.37
2022-08-07T01:18:31.836Z,24.26
2022-08-07T01:19:38.575Z,24.19
2022-08-07T01:20:59.492Z,24.09
2022-08-07T01:21:58.112Z,24.05
2022-08-07T01:23:12.381Z,24.12
2022-08-07T01:24:11.444Z,24.12
2022-08-07T01:25:40.287Z,24.16
2022-08-07T01:26:26.266Z,24.16
2022-08-07T01:27:32.291Z,24.18
2022-08-07T01:28:37.566Z,24.19
2022-08-07T01:29:42.168Z,24.20
2022-08-07T01:30:47.086Z,24.19
2022-08-07T01:31:53.839Z,24.20
2022-08-07T01:32:58.409Z,24.16
2022-08-07T01:34:04.123Z,24.11
2022-08-07T01:35:10.153Z,24.10
2022-08-07T01:36:16.777Z,24.07
2022-08-07T01:37:24.184Z,24.08
2022-08-07T01:38:32.246Z,24.10
2022-08-07T01:39:39.603Z,24.08
2022-08-07T01:40:48.792Z,23.95
2022-08-07T01:42:32.455Z,23.86
2022-08-07T01:43:03.388Z,23.81
2022-08-07T01:44:12.378Z,23.77
2022-08-07T01:45:36.222Z,23.77
2022-08-07T01:46:31.158Z,23.77
2022-08-07T01:48:21.629Z,23.70
2022-08-07T01:48:46.833Z,23.63
2022-08-07T01:49:53.620Z,23.62
2022-08-07T01:51:24.273Z,23.57
2022-08-07T01:52:11.225Z,23.50
2022-08-07T01:53:21.560Z,23.47
2022-08-07T01:54:37.082Z,23.53
2022-08-07T01:55:39.880Z,23.61
2022-08-07T01:57:03.692Z,23.65
2022-08-07T01:58:29.611Z,23.66
2022-08-07T01:59:21.359Z,23.69
2022-08-07T02:00:29.969Z,23.77
2022-08-07T02:02:02.240Z,23.76
2022-08-07T02:04:05.748Z,23.89
2022-08-07T02:05:43.173Z,23.75
2022-08-07T02:06:31.706Z,23.78
2022-08-07T02:07:50.446Z,23.77
2022-08-07T02:08:54.628Z,23.76
2022-08-07T02:10:09.382Z,23.76
2022-08-07T02:11:30.526Z,23.76
2022-08-07T02:12:29.172Z,23.76
2022-08-07T02:13:57.713Z,23.77
2022-08-07T02:14:42.178Z,23.75
2022-08-07T02:15:49.916Z,23.80
2022-08-07T02:17:00.544Z,23.78
2022-08-07T02:18:10.850Z,23.82
2022-08-07T02:20:05.177Z,23.82
2022-08-07T02:20:31.996Z,23.81
2022-08-07T02:21:55.075Z,23.83
2022-08-07T02:22:46.086Z,23.75
2022-08-07T02:23:50.768Z,23.77
2022-08-07T02:24:56.674Z,23.75
2022-08-07T02:26:31.729Z,23.69
2022-08-07T02:27:09.103Z,23.66
2022-08-07T02:28:24.438Z,23.66
2022-08-07T02:29:21.764Z,23.76
2022-08-07T02:30:29.795Z,23.76
2022-08-07T02:31:35.942Z,23.83
2022-08-07T02:33:00.695Z,23.88
2022-08-07T02:34:03.700Z,23.81
2022-08-07T02:34:53.969Z,23.73
2022-08-07T02:36:29.246Z,23.71
2022-08-07T02:37:10.402Z,23.67
2022-08-07T02:38:23.151Z,23.65
2022-08-07T02:39:43.086Z,23.59
2022-08-07T02:40:40.100Z,23.50
2022-08-07T02:41:50.481Z,23.56
2022-08-07T02:42:52.458Z,23.57
2022-08-07T02:44:00.307Z,23.60
2022-08-07T02:45:18.440Z,23.65
2022-08-07T02:46:17.028Z,23.64
2022-08-07T02:47:23.915Z,23.69
2022-08-07T02:48:37.784Z,23.69
2022-08-07T02:49:55.919Z,23.76
2022-08-07T02:50:52.246Z,23.78
2022-08-07T02:51:59.148Z,23.83
2022-08-07T02:53:13.988Z,23.82
2022-08-07T02:54:20.222Z,23.84
2022-08-07T02:56:03.451Z,23.96
2022-08-07T02:56:35.971Z,24.07
2022-08-07T02:57:41.483Z,24.15
2022-08-07T02:58:47.388Z,24.15
2022-08-07T02:59:54.756Z,24.10
2022-08-07T03:01:01.932Z,24.15
2022-08-07T03:02:10.360Z,24.06
2022-08-07T03:04:24.123Z,24.08
2022-08-07T03:05:35.713Z,24.15
2022-08-07T03:06:34.640Z,24.20
2022-08-07T03:08:07.582Z,24.21
2022-08-07T03:08:54.776Z,24.23
2022-08-07T03:10:03.532Z,24.25
2022-08-07T03:11:08.075Z,24.26
2022-08-07T03:12:22.274Z,24.15
2022-08-07T03:13:20.729Z,24.13
2022-08-07T03:14:27.710Z,24.22
2022-08-07T03:15:47.723Z,24.24
2022-08-07T03:16:38.488Z,24.32
2022-08-07T03:17:53.252Z,24.36
2022-08-07T03:18:53.343Z,24.41
2022-08-07T03:19:59.067Z,24.42
2022-08-07T03:21:11.495Z,24.37
2022-08-07T03:22:21.018Z,24.36
2022-08-07T03:23:34.165Z,24.36
2022-08-07T03:24:38.664Z,24.43
2022-08-07T03:25:45.468Z,24.43
2022-08-07T03:26:58.907Z,24.46
2022-08-07T03:28:37.168Z,24.51
2022-08-07T03:30:27.808Z,24.53
2022-08-07T03:31:43.182Z,24.40
2022-08-07T03:32:49.111Z,24.41
2022-08-07T03:33:51.080Z,24.44
2022-08-07T03:35:16.558Z,24.49
2022-08-07T03:36:11.687Z,24.54
2022-08-07T03:37:19.067Z,24.53
2022-08-07T03:38:29.578Z,24.55
2022-08-07T03:39:45.822Z,24.59
2022-08-07T03:40:46.099Z,24.61
2022-08-07T03:41:54.898Z,24.60
2022-08-07T03:43:04.350Z,24.63
2022-08-07T03:44:12.915Z,24.58
2022-08-07T03:45:29.809Z,24.68
2022-08-07T03:46:33.964Z,24.66
2022-08-07T03:47:47.663Z,24.72
2022-08-07T03:49:02.122Z,24.76
2022-08-07T03:49:52.518Z,24.70
2022-08-07T03:51:00.250Z,24.82
2022-08-07T03:52:22.867Z,24.85
2022-08-07T03:53:19.902Z,24.89
2022-08-07T03:54:35.676Z,24.95
2022-08-07T03:55:58.488Z,25.06
2022-08-07T03:57:03.995Z,25.08
2022-08-07T03:58:34.995Z,25.00
2022-08-07T03:59:09.551Z,25.03
2022-08-07T04:00:16.087Z,25.12
2022-08-07T04:01:22.473Z,25.19
2022-08-07T04:02:28.208Z,25.27
2022-08-07T04:03:49.991Z,25.28
2022-08-07T04:04:42.878Z,25.31
2022-08-07T04:05:50.659Z,25.30
2022-08-07T04:07:01.030Z,25.32
2022-08-07T04:08:10.279Z,25.40
2022-08-07T04:09:16.942Z,25.44
2022-08-07T04:10:23.195Z,25.49
2022-08-07T04:12:25.548Z,25.49
2022-08-07T04:12:38.505Z,25.55
2022-08-07T04:14:10.326Z,25.55
2022-08-07T04:14:52.094Z,25.52
2022-08-07T04:15:58.626Z,25.47
2022-08-07T04:17:05.317Z,25.47
2022-08-07T04:18:56.560Z,25.61
2022-08-07T04:19:21.814Z,25.66
2022-08-07T04:20:29.428Z,25.71
2022-08-07T04:21:38.475Z,25.96
2022-08-07T04:22:53.817Z,26.61
2022-08-07T04:24:07.027Z,27.19
2022-08-07T04:25:01.978Z,27.44
2022-08-07T04:26:10.505Z,27.35
2022-08-07T04:27:25.336Z,27.11
2022-08-07T04:28:23.003Z,26.85
2022-08-07T04:29:30.406Z,26.67
2022-08-07T04:30:55.180Z,26.53
2022-08-07T04:32:03.012Z,26.55
2022-08-07T04:32:59.582Z,26.62
2022-08-07T04:34:06.403Z,26.67
2022-08-07T04:35:13.871Z,26.90
2022-08-07T04:36:22.734Z,27.22
2022-08-07T04:37:28.769Z,27.70
2022-08-07T04:38:35.279Z,28.60
2022-08-07T04:40:56.864Z,30.81
2022-08-07T04:42:06.837Z,31.64
2022-08-07T04:43:14.210Z,32.92
2022-08-07T04:44:23.369Z,33.94
2022-08-07T04:46:00.270Z,34.80
2022-08-07T04:47:04.116Z,35.29
2022-08-07T04:48:05.582Z,35.68
2022-08-07T04:49:20.016Z,36.02
2022-08-07T04:50:38.407Z,36.53
2022-08-07T04:52:18.416Z,37.08
2022-08-07T04:54:58.718Z,37.92
2022-08-07T04:58:10.148Z,36.33
2022-08-07T04:58:16.619Z,38.04
2022-08-07T05:00:14.625Z,36.17
2022-08-07T05:01:34.926Z,36.88
2022-08-07T05:02:48.079Z,37.55
2022-08-07T05:04:07.909Z,38.05
2022-08-07T05:05:53.207Z,38.01
2022-08-07T05:06:43.423Z,38.01
2022-08-07T05:08:01.777Z,38.74
2022-08-07T05:09:45.887Z,39.10
2022-08-07T05:10:39.381Z,38.74
2022-08-07T05:11:57.158Z,38.96
2022-08-07T05:14:44.826Z,38.79
2022-08-07T05:14:55.290Z,39.18
2022-08-07T05:15:23.270Z,39.99
2022-08-07T05:16:25.847Z,40.37
2022-08-07T05:17:51.697Z,40.00
2022-08-07T05:18:44.294Z,39.96
2022-08-07T05:19:51.759Z,39.87
2022-08-07T05:21:00.668Z,39.57
2022-08-07T05:22:10.736Z,39.25
2022-08-07T05:23:30.009Z,39.86
2022-08-07T05:24:40.531Z,40.91
2022-08-07T05:26:11.638Z,41.55
2022-08-07T05:26:52.634Z,41.16
2022-08-07T05:28:19.872Z,41.02
2022-08-07T05:29:13.738Z,40.85
2022-08-07T05:30:32.708Z,40.90
2022-08-07T05:31:34.573Z,40.95
2022-08-07T05:32:42.848Z,41.29
2022-08-07T05:34:01.004Z,41.71
2022-08-07T05:34:56.637Z,42.11
2022-08-07T05:36:02.298Z,42.03
2022-08-07T05:37:09.041Z,42.18
2022-08-07T05:39:00.331Z,41.97
2022-08-07T05:40:18.070Z,41.45
2022-08-07T05:40:37.831Z,41.00
2022-08-07T05:42:00.279Z,40.31
2022-08-07T05:42:55.809Z,39.95
2022-08-07T05:44:08.272Z,39.14
2022-08-07T05:45:25.819Z,38.08
2022-08-07T05:46:21.737Z,37.15
2022-08-07T05:47:38.085Z,36.80
2022-08-07T05:48:34.436Z,36.25
2022-08-07T05:50:52.198Z,36.72
2022-08-07T05:51:56.225Z,36.19
2022-08-07T05:53:05.222Z,35.80
2022-08-07T05:54:31.055Z,35.78
2022-08-07T05:55:18.233Z,35.76
2022-08-07T05:56:30.071Z,35.29
2022-08-07T05:57:34.647Z,34.42
2022-08-07T05:58:41.006Z,34.02
2022-08-07T05:59:57.866Z,33.88
2022-08-07T06:01:05.054Z,34.14
2022-08-07T06:02:10.394Z,34.67
2022-08-07T06:03:17.141Z,34.79
2022-08-07T06:04:29.839Z,34.93
2022-08-07T06:05:31.303Z,34.62
2022-08-07T06:06:36.898Z,33.65
2022-08-07T06:08:14.034Z,33.27
2022-08-07T06:08:54.088Z,33.26
2022-08-07T06:10:05.223Z,32.93
2022-08-07T06:11:10.281Z,32.64
2022-08-07T06:12:15.707Z,32.15
2022-08-07T06:13:20.909Z,32.26
2022-08-07T06:14:30.201Z,32.35
2022-08-07T06:15:39.518Z,32.42
2022-08-07T06:16:50.216Z,32.06
2022-08-07T06:17:55.047Z,31.53
2022-08-07T06:19:02.950Z,31.50
2022-08-07T06:20:12.277Z,31.83
2022-08-07T06:22:15.936Z,31.94
2022-08-07T06:22:27.046Z,32.08
2022-08-07T06:24:36.743Z,32.39
2022-08-07T06:24:56.923Z,32.19
2022-08-07T06:25:57.056Z,32.33
2022-08-07T06:27:06.443Z,32.39
2022-08-07T06:28:14.909Z,32.34
2022-08-07T06:29:18.747Z,32.30
2022-08-07T06:30:35.487Z,32.78
2022-08-07T06:31:47.065Z,33.00
2022-08-07T06:32:39.291Z,32.91
2022-08-07T06:33:44.084Z,33.22
2022-08-07T06:34:50.698Z,34.43
2022-08-07T06:36:12.360Z,36.14
2022-08-07T06:37:02.631Z,37.56
2022-08-07T06:38:20.285Z,38.78
2022-08-07T06:40:15.759Z,39.56
2022-08-07T06:40:26.501Z,40.59
2022-08-07T06:42:02.284Z,41.28
2022-08-07T06:42:48.954Z,41.24
2022-08-07T06:44:01.825Z,41.62
2022-08-07T06:45:12.948Z,42.04
2022-08-07T06:46:31.427Z,41.66
2022-08-07T06:47:27.060Z,42.53
2022-08-07T06:48:32.936Z,43.10
2022-08-07T06:49:52.151Z,43.54
2022-08-07T06:50:48.129Z,43.38
2022-08-07T06:52:02.944Z,43.27
2022-08-07T06:53:05.384Z,42.45
2022-08-07T06:55:33.377Z,42.87
2022-08-07T06:55:53.989Z,42.58
2022-08-07T06:56:49.500Z,43.13
2022-08-07T06:57:56.350Z,43.81
2022-08-07T07:00:11.592Z,43.12
2022-08-07T07:00:13.186Z,43.14
2022-08-07T07:01:17.361Z,43.28
2022-08-07T07:02:53.419Z,42.59
2022-08-07T07:03:48.872Z,42.26
2022-08-07T07:04:35.559Z,42.83
2022-08-07T07:06:04.189Z,43.04
2022-08-07T07:07:00.245Z,43.78
2022-08-07T07:08:00.107Z,44.52
2022-08-07T07:09:19.503Z,44.04
2022-08-07T07:10:36.329Z,43.95
2022-08-07T07:12:07.748Z,43.94
2022-08-07T07:12:57.229Z,43.64
2022-08-07T07:14:08.526Z,43.82
2022-08-07T07:15:35.958Z,43.32
2022-08-07T07:16:49.905Z,44.23
2022-08-07T07:18:10.447Z,44.56
2022-08-07T07:19:55.100Z,45.13
2022-08-07T07:20:27.224Z,43.79
2022-08-07T07:22:04.317Z,43.66
2022-08-07T07:24:10.105Z,43.73
2022-08-07T07:24:11.034Z,43.79
2022-08-07T07:25:03.088Z,44.51
2022-08-07T07:26:34.980Z,43.86
2022-08-07T07:27:17.445Z,43.32
2022-08-07T07:28:42.669Z,42.93
2022-08-07T07:29:56.517Z,43.45
2022-08-07T07:30:45.473Z,43.42
2022-08-07T07:31:54.106Z,43.18
2022-08-07T07:33:00.449Z,42.85
2022-08-07T07:34:08.701Z,42.41
2022-08-07T07:35:15.761Z,42.93
2022-08-07T07:36:20.963Z,43.53
2022-08-07T07:37:47.165Z,43.47
2022-08-07T07:38:36.297Z,43.21
2022-08-07T07:39:52.027Z,43.06
2022-08-07T07:40:51.175Z,42.69
2022-08-07T07:42:12.981Z,43.35
2022-08-07T07:43:15.360Z,43.66
2022-08-07T07:44:21.650Z,43.39
2022-08-07T07:46:36.560Z,43.58
2022-08-07T07:46:36.617Z,43.26
2022-08-07T07:47:51.981Z,43.08
2022-08-07T07:48:49.548Z,43.00
2022-08-07T07:50:33.946Z,43.11
2022-08-07T07:51:03.170Z,42.90
2022-08-07T07:52:11.589Z,43.38
2022-08-07T07:53:23.299Z,42.75
2022-08-07T07:54:25.682Z,42.19
2022-08-07T07:55:45.798Z,42.55
2022-08-07T07:56:49.759Z,42.17
2022-08-07T07:57:58.352Z,42.73
2022-08-07T07:59:02.474Z,42.24
2022-08-07T08:00:10.199Z,41.72
2022-08-07T08:02:03.338Z,41.59
2022-08-07T08:02:35.337Z,41.30
2022-08-07T08:04:05.955Z,41.10
2022-08-07T08:04:44.299Z,40.84
2022-08-07T08:05:55.131Z,40.94
2022-08-07T08:07:02.648Z,40.87
2022-08-07T08:08:04.463Z,40.65
2022-08-07T08:09:09.660Z,41.03
2022-08-07T08:10:38.117Z,40.90
2022-08-07T08:11:59.986Z,40.68
2022-08-07T08:12:52.614Z,40.66
2022-08-07T08:13:54.521Z,40.49
2022-08-07T08:14:44.897Z,40.77
2022-08-07T08:15:58.773Z,41.02
2022-08-07T08:17:56.181Z,40.51
2022-08-07T08:18:17.558Z,40.39
2022-08-07T08:20:18.591Z,40.15
2022-08-07T08:20:38.410Z,39.98
2022-08-07T08:22:04.460Z,40.20
2022-08-07T08:23:30.583Z,39.23
2022-08-07T08:25:18.371Z,39.12
2022-08-07T08:26:30.484Z,39.41
2022-08-07T08:27:56.714Z,39.77
2022-08-07T08:28:53.156Z,39.62
2022-08-07T08:30:08.300Z,39.49
2022-08-07T08:31:30.411Z,39.62
2022-08-07T08:32:38.596Z,39.53
2022-08-07T08:33:49.459Z,39.42
2022-08-07T08:34:51.631Z,39.31
2022-08-07T08:35:57.985Z,39.16
2022-08-07T08:37:04.241Z,39.59
2022-08-07T08:38:13.498Z,39.22
2022-08-07T08:39:18.526Z,39.17
2022-08-07T08:40:36.027Z,39.40
2022-08-07T08:43:42.919Z,39.79
2022-08-07T08:44:56.593Z,39.77
2022-08-07T08:46:12.096Z,39.88
2022-08-07T08:47:47.333Z,39.85
2022-08-07T08:49:05.182Z,39.44
2022-08-07T08:50:39.118Z,39.38
2022-08-07T08:52:13.433Z,39.06
2022-08-07T08:53:00.154Z,38.80
2022-08-07T08:54:12.787Z,38.92
2022-08-07T08:55:53.275Z,38.97
2022-08-07T08:56:47.615Z,39.13
2022-08-07T08:58:20.309Z,39.03
2022-08-07T08:59:42.277Z,39.20
2022-08-07T09:00:52.826Z,39.31
2022-08-07T09:02:13.333Z,39.29
2022-08-07T09:03:21.488Z,39.28
2022-08-07T09:04:47.173Z,39.42
2022-08-07T09:06:00.914Z,39.91
2022-08-07T09:07:25.350Z,39.24
2022-08-07T09:10:23.326Z,40.39
2022-08-07T09:11:50.477Z,40.39
2022-08-07T09:12:42.574Z,39.91
2022-08-07T09:14:10.077Z,39.57
2022-08-07T09:16:22.376Z,39.38
2022-08-07T09:16:52.467Z,39.88
2022-08-07T09:18:11.374Z,39.51
2022-08-07T09:19:52.339Z,39.24
2022-08-07T09:20:40.685Z,39.40
2022-08-07T09:22:40.020Z,39.40
2022-08-07T09:24:34.138Z,39.51
2022-08-07T09:24:56.010Z,39.59
2022-08-07T09:26:28.169Z,39.61
2022-08-07T09:28:00.144Z,40.30
2022-08-07T09:30:28.270Z,40.51
2022-08-07T09:31:38.517Z,40.53
2022-08-07T09:33:05.540Z,40.66
2022-08-07T09:34:21.895Z,40.74
2022-08-07T09:36:02.674Z,40.59
2022-08-07T09:37:19.075Z,41.21
2022-08-07T09:38:53.840Z,41.21
2022-08-07T09:40:07.320Z,41.20
2022-08-07T09:41:20.945Z,40.30
2022-08-07T09:42:33.696Z,40.44
2022-08-07T09:44:05.853Z,39.44
2022-08-07T09:47:25.996Z,39.01
2022-08-07T09:47:49.623Z,38.15
2022-08-07T09:50:19.094Z,36.71
2022-08-07T09:51:14.751Z,36.28
2022-08-07T09:52:35.308Z,35.76
2022-08-07T09:53:47.228Z,34.67
2022-08-07T09:54:54.101Z,33.67
2022-08-07T09:57:46.552Z,33.82
2022-08-07T09:59:14.777Z,33.79
2022-08-07T10:00:29.881Z,33.48
2022-08-07T10:01:50.619Z,33.44
2022-08-07T10:04:06.492Z,33.52
2022-08-07T10:04:38.060Z,33.51
2022-08-07T10:06:12.008Z,33.56
2022-08-07T10:07:52.558Z,33.39
2022-08-07T10:08:51.352Z,33.25
2022-08-07T10:10:21.321Z,33.18
2022-08-07T10:12:18.173Z,32.86
2022-08-07T10:14:00.862Z,32.68
2022-08-07T10:15:02.955Z,32.35
2022-08-07T10:16:40.901Z,32.12
2022-08-07T10:18:10.872Z,32.20
2022-08-07T10:19:39.209Z,31.90
2022-08-07T10:21:19.939Z,31.87
2022-08-07T10:22:45.978Z,32.05
2022-08-07T10:24:06.408Z,31.97
2022-08-07T10:25:23.886Z,31.85
2022-08-07T10:26:32.947Z,31.40
2022-08-07T10:28:15.454Z,31.39
2022-08-07T10:29:43.330Z,31.09
2022-08-07T10:31:23.225Z,31.01
2022-08-07T10:32:52.956Z,31.20
2022-08-07T10:34:05.994Z,31.13
2022-08-07T10:35:25.737Z,30.97
2022-08-07T10:36:47.628Z,30.97
2022-08-07T10:38:21.724Z,31.16
2022-08-07T10:39:41.464Z,30.91
2022-08-07T10:40:38.710Z,30.53
2022-08-07T10:42:00.461Z,30.99
2022-08-07T10:43:19.433Z,30.94
2022-08-07T10:44:40.530Z,31.15
2022-08-07T10:45:58.317Z,31.20
2022-08-07T10:47:27.043Z,31.39
2022-08-07T10:49:06.198Z,31.57
2022-08-07T10:50:25.809Z,31.42
2022-08-07T10:53:09.288Z,31.66
2022-08-07T10:54:55.152Z,32.02
2022-08-07T10:56:09.621Z,32.59
2022-08-07T10:57:37.101Z,33.07
2022-08-07T10:58:59.681Z,33.44
2022-08-07T11:00:36.489Z,34.14
2022-08-07T11:01:51.832Z,34.31
2022-08-07T11:03:03.008Z,34.28
2022-08-07T11:04:37.491Z,34.74
2022-08-07T11:05:53.778Z,34.90
2022-08-07T11:07:24.575Z,35.13
2022-08-07T11:08:46.537Z,35.19
2022-08-07T11:10:08.830Z,34.66
2022-08-07T11:11:26.065Z,34.29
2022-08-07T11:12:35.561Z,34.24
2022-08-07T11:14:46.299Z,34.17
2022-08-07T11:15:00.551Z,33.95
2022-08-07T11:16:11.105Z,33.87
2022-08-07T11:17:43.544Z,33.81
2022-08-07T11:18:51.885Z,33.61
2022-08-07T11:20:03.747Z,33.39
2022-08-07T11:22:53.768Z,33.53
2022-08-07T11:24:04.204Z,33.28
2022-08-07T11:25:19.705Z,32.89
2022-08-07T11:26:38.609Z,32.48
2022-08-07T11:28:02.899Z,32.24
2022-08-07T11:29:01.204Z,32.22
2022-08-07T11:30:17.664Z,32.19
2022-08-07T11:31:21.578Z,32.05
2022-08-07T11:32:52.853Z,32.22
2022-08-07T11:34:19.150Z,32.28
2022-08-07T11:35:27.002Z,32.28
2022-08-07T11:36:52.446Z,32.34
2022-08-07T11:38:17.483Z,32.30
2022-08-07T11:39:59.819Z,32.14
2022-08-07T11:41:04.270Z,32.31
2022-08-07T11:42:29.934Z,32.33
2022-08-07T11:43:54.567Z,32.27
2022-08-07T11:44:57.644Z,32.08
2022-08-07T11:46:09.573Z,32.10
2022-08-07T11:47:26.169Z,32.14
2022-08-07T11:49:28.700Z,32.18
2022-08-07T11:52:14.246Z,32.43
2022-08-07T11:54:01.255Z,32.26
2022-08-07T11:55:18.984Z,32.35
2022-08-07T11:56:32.052Z,32.40
2022-08-07T11:57:59.686Z,32.44
2022-08-07T11:59:02.301Z,32.34
2022-08-07T12:00:28.276Z,32.34
2022-08-07T12:01:59.199Z,32.44
2022-08-07T12:03:45.023Z,32.47
2022-08-07T12:04:19.953Z,32.29
2022-08-07T12:05:49.101Z,32.34
2022-08-07T12:07:09.038Z,32.21
2022-08-07T12:08:25.953Z,32.27
2022-08-07T12:09:36.331Z,32.30
2022-08-07T12:10:49.720Z,32.42
2022-08-07T12:12:13.220Z,32.34
2022-08-07T12:13:35.543Z,32.32
2022-08-07T12:14:56.143Z,32.21
2022-08-07T12:16:05.986Z,32.11
2022-08-07T12:17:19.734Z,31.85
2022-08-07T12:18:29.622Z,31.78
2022-08-07T12:20:04.906Z,31.78
2022-08-07T12:21:55.560Z,31.76
2022-08-07T12:22:55.927Z,31.60
2022-08-07T12:24:06.789Z,31.41
2022-08-07T12:26:03.350Z,31.22
2022-08-07T12:27:04.800Z,31.07
2022-08-07T12:28:17.461Z,31.29
2022-08-07T12:29:40.541Z,31.23
2022-08-07T12:30:53.082Z,31.06
2022-08-07T12:32:12.077Z,30.97
2022-08-07T12:33:28.064Z,30.95
2022-08-07T12:34:28.965Z,30.80
2022-08-07T12:35:37.591Z,30.63
2022-08-07T12:36:50.037Z,30.64
2022-08-07T12:38:09.527Z,30.53
2022-08-07T12:39:09.421Z,30.49
2022-08-07T12:40:43.644Z,30.40
2022-08-07T12:41:23.387Z,30.31
2022-08-07T12:42:34.347Z,30.23
2022-08-07T12:44:04.108Z,30.39
2022-08-07T12:44:51.158Z,30.38
2022-08-07T12:46:32.344Z,30.41
2022-08-07T12:47:52.602Z,30.30
2022-08-07T12:49:39.523Z,29.98
2022-08-07T12:50:48.861Z,29.97
2022-08-07T12:52:12.100Z,29.84
2022-08-07T12:54:02.724Z,29.87
2022-08-07T12:56:33.413Z,29.69
2022-08-07T12:57:38.928Z,29.72
2022-08-07T12:58:53.269Z,29.62
2022-08-07T13:00:06.389Z,29.68
2022-08-07T13:01:32.592Z,29.72
2022-08-07T13:02:58.412Z,29.78
2022-08-07T13:04:31.662Z,29.74
2022-08-07T13:06:21.346Z,29.51
2022-08-07T13:08:13.967Z,29.47
2022-08-07T13:09:12.680Z,29.26
2022-08-07T13:10:39.714Z,29.35
2022-08-07T13:12:03.153Z,29.54
2022-08-07T13:13:48.425Z,29.40
2022-08-07T13:14:56.728Z,29.16
2022-08-07T13:16:06.969Z,28.89
2022-08-07T13:17:40.686Z,28.68
2022-08-07T13:18:55.230Z,28.29
2022-08-07T13:20:13.921Z,28.28
2022-08-07T13:21:51.774Z,28.15
2022-08-07T13:22:42.122Z,28.12
2022-08-07T13:24:11.471Z,27.72
2022-08-07T13:25:39.393Z,27.51
2022-08-07T13:26:56.051Z,27.61
2022-08-07T13:28:13.267Z,27.43
2022-08-07T13:29:26.379Z,27.33
2022-08-07T13:30:40.319Z,27.32
2022-08-07T13:31:57.791Z,27.26
2022-08-07T13:34:14.782Z,27.39
2022-08-07T13:34:39.142Z,27.32
2022-08-07T13:35:59.762Z,27.43
2022-08-07T13:38:31.469Z,27.22
2022-08-07T13:41:20.526Z,27.44
2022-08-07T13:42:28.108Z,27.11
2022-08-07T13:43:39.946Z,27.00
2022-08-07T13:44:45.985Z,26.83
2022-08-07T13:46:11.339Z,26.82
2022-08-07T13:47:04.768Z,26.61
2022-08-07T13:48:27.723Z,26.54
2022-08-07T13:50:34.652Z,26.61
2022-08-07T13:50:44.793Z,26.77
2022-08-07T13:52:22.893Z,26.87
2022-08-07T13:52:48.407Z,26.96
2022-08-07T13:54:03.352Z,26.98
2022-08-07T13:55:25.520Z,27.05
2022-08-07T13:56:35.357Z,26.91
2022-08-07T13:57:37.762Z,26.80
2022-08-07T13:59:05.401Z,26.34
2022-08-07T14:00:26.270Z,26.28
2022-08-07T14:01:22.220Z,26.33
2022-08-07T14:02:29.604Z,26.37
2022-08-07T14:04:07.603Z,26.42
2022-08-07T14:04:54.737Z,26.47
2022-08-07T14:06:04.444Z,26.35
2022-08-07T14:07:10.285Z,26.33
2022-08-07T14:08:17.829Z,26.47
2022-08-07T14:10:01.933Z,26.33
2022-08-07T14:10:42.137Z,26.23
2022-08-07T14:11:53.516Z,26.13
2022-08-07T14:13:03.950Z,26.30
2022-08-07T14:14:15.452Z,26.42
2022-08-07T14:15:23.898Z,26.26
2022-08-07T14:16:36.111Z,26.25
2022-08-07T14:18:15.748Z,26.12
2022-08-07T14:19:03.265Z,26.03
2022-08-07T14:20:40.496Z,26.09
2022-08-07T14:22:03.865Z,26.16
2022-08-07T14:22:44.123Z,26.13
2022-08-07T14:24:00.674Z,25.94
2022-08-07T14:25:01.991Z,25.94
2022-08-07T14:26:28.466Z,25.97
2022-08-07T14:28:57.501Z,25.99
2022-08-07T14:30:08.059Z,25.77
2022-08-07T14:31:06.228Z,25.76
2022-08-07T14:32:12.507Z,25.82
2022-08-07T14:33:22.459Z,25.83
2022-08-07T14:34:30.837Z,25.51
2022-08-07T14:35:44.996Z,25.49
2022-08-07T14:36:45.855Z,25.34
2022-08-07T14:38:05.835Z,25.10
2022-08-07T14:39:04.351Z,25.13
2022-08-07T14:41:33.612Z,25.09
2022-08-07T14:42:33.669Z,25.01
2022-08-07T14:43:59.293Z,25.19
2022-08-07T14:46:11.318Z,25.23
2022-08-07T14:47:19.385Z,24.96
2022-08-07T14:48:28.501Z,24.82
2022-08-07T14:49:57.552Z,25.03
2022-08-07T14:50:51.199Z,24.98
2022-08-07T14:52:04.970Z,24.90
2022-08-07T14:55:26.656Z,24.92
2022-08-07T14:56:32.864Z,24.82
2022-08-07T14:57:57.851Z,24.95
2022-08-07T15:00:03.490Z,24.82
2022-08-07T15:01:21.873Z,24.72
2022-08-07T15:02:34.734Z,24.78
2022-08-07T15:04:53.131Z,24.76
2022-08-07T15:05:54.825Z,24.60
2022-08-07T15:06:58.673Z,24.77
2022-08-07T15:08:12.457Z,24.77
2022-08-07T15:09:57.275Z,24.81
2022-08-07T15:10:36.147Z,24.69
2022-08-07T15:11:54.195Z,24.79
2022-08-07T15:12:59.466Z,24.67
2022-08-07T15:14:10.080Z,24.56
2022-08-07T15:15:21.117Z,24.47
2022-08-07T15:16:31.225Z,24.44
2022-08-07T15:17:55.210Z,24.54
2022-08-07T15:18:45.492Z,24.45
2022-08-07T15:20:33.205Z,24.49
2022-08-07T15:22:37.949Z,24.33
2022-08-07T15:25:14.676Z,24.38
2022-08-07T15:25:15.512Z,24.46
2022-08-07T15:26:02.824Z,24.37
2022-08-07T15:27:15.583Z,24.38
2022-08-07T15:30:04.495Z,24.40
2022-08-07T15:32:02.787Z,24.55
2022-08-07T15:34:17.364Z,24.46
2022-08-07T15:36:00.721Z,24.60
2022-08-07T15:37:02.841Z,24.52
2022-08-07T15:38:04.740Z,24.57
2022-08-07T15:40:03.378Z,24.79
2022-08-07T15:41:23.991Z,25.00
2022-08-07T15:44:03.066Z,24.78
2022-08-07T15:46:25.601Z,24.87
2022-08-07T15:48:55.245Z,24.77
2022-08-07T15:50:06.741Z,24.48
2022-08-07T15:51:14.172Z,24.49
2022-08-07T15:52:30.577Z,24.41
2022-08-07T15:53:51.607Z,24.47
2022-08-07T15:54:44.826Z,24.61
2022-08-07T15:56:02.868Z,24.72
2022-08-07T15:57:05.725Z,24.88
2022-08-07T15:58:14.517Z,24.82
2022-08-07T15:59:40.113Z,24.88
2022-08-07T16:00:33.747Z,24.96
2022-08-07T16:01:41.977Z,24.73
2022-08-07T16:02:50.383Z,24.75
2022-08-07T16:03:58.313Z,24.58
2022-08-07T16:05:04.908Z,24.54
2022-08-07T16:06:14.264Z,24.71
2022-08-07T16:08:29.153Z,24.77
2022-08-07T16:08:32.990Z,24.67
2022-08-07T16:09:55.378Z,24.65
2022-08-07T16:11:04.724Z,24.79
2022-08-07T16:12:37.806Z,24.63
2022-08-07T16:13:39.572Z,24.66
2022-08-07T16:15:55.578Z,24.48
2022-08-07T16:16:47.924Z,24.41
2022-08-07T16:18:00.767Z,24.29
2022-08-07T16:19:20.376Z,24.30
2022-08-07T16:20:33.785Z,24.35
2022-08-07T16:22:02.317Z,24.36
2022-08-07T16:23:13.554Z,24.50
2022-08-07T16:24:37.371Z,24.29
2022-08-07T16:27:18.075Z,24.25
2022-08-07T16:29:18.500Z,24.18
2022-08-07T16:31:57.769Z,24.38
2022-08-07T16:34:48.479Z,24.10
2022-08-07T16:36:19.691Z,24.15
2022-08-07T16:38:03.534Z,24.21
2022-08-07T16:39:16.635Z,24.07
2022-08-07T16:40:34.647Z,24.10
2022-08-07T16:42:56.876Z,23.90
2022-08-07T16:44:53.705Z,23.80
2022-08-07T16:46:40.553Z,23.68
2022-08-07T16:47:16.597Z,23.70
2022-08-07T16:48:53.744Z,23.60
2022-08-07T16:50:39.137Z,23.42
2022-08-07T16:51:54.024Z,23.09
2022-08-07T16:53:15.045Z,23.24